Time;durP1;ratioP1;P1;durP2;ratioP2;P2;SDS_P1;SDS_P2;PMS_P1;PMS_P2;Temp;Humidity;BMP_temperature;BMP_pressure;BME280_temperature;BME280_humidity;BME280_pressure;Samples;Min_cycle;Max_cycle;Signal;HPM_P1;HPM_P2
2024/01/13 00:02:07;;;;;;;;;;;-2.80;87.90;;;;;;4994448;28;93997;-56
2024/01/13 00:04:32;;;;;;;;;;;-2.80;87.90;;;;;;4993885;28;93541;-55
2024/01/13 00:06:58;;;;;;;;;;;-2.80;88.00;;;;;;4994452;28;92056;-54
2024/01/13 00:09:24;;;;;;;;;;;-2.80;87.90;;;;;;4995277;28;92498;-54
2024/01/13 00:11:49;;;;;;;;;;;-2.80;87.90;;;;;;4991154;28;91846;-56
2024/01/13 00:14:16;;;;;;;;;;;-2.80;88.00;;;;;;4994753;28;92532;-56
2024/01/13 00:16:41;;;;;;;;;;;-2.80;87.90;;;;;;4991103;28;91422;-57
2024/01/13 00:19:07;;;;;;;;;;;-2.80;87.90;;;;;;4990810;28;92229;-57
2024/01/13 00:21:32;;;;;;;;;;;-2.80;88.00;;;;;;4997166;28;92083;-55
2024/01/13 00:23:58;;;;;;;;;;;-2.80;87.90;;;;;;4989743;28;93373;-54
2024/01/13 00:26:23;;;;;;;;;;;-2.80;87.80;;;;;;4994209;28;92083;-57
2024/01/13 00:28:49;;;;;;;;;;;-2.80;87.80;;;;;;4994282;28;92014;-55
2024/01/13 00:31:14;;;;;;;;;;;-2.80;87.80;;;;;;4994750;28;92083;-57
2024/01/13 00:33:43;;;;;;;;;;;-2.90;88.00;;;;;;4994281;28;91836;-57
2024/01/13 00:36:09;;;;;;;;;;;-2.80;88.10;;;;;;4997303;28;92493;-56
2024/01/13 00:38:35;;;;;;;;;;;-2.80;88.00;;;;;;4991482;28;92125;-56
2024/01/13 00:41:00;;;;;;;;;;;-2.90;88.00;;;;;;4997914;28;91684;-55
2024/01/13 00:43:26;;;;;;;;;;;-2.90;87.90;;;;;;4989723;28;92716;-55
2024/01/13 00:45:52;;;;;;;;;;;-2.80;88.00;;;;;;4997478;28;92075;-56
2024/01/13 00:48:17;;;;;;;;;;;-2.80;88.10;;;;;;4999351;28;92990;-55
2024/01/13 00:50:43;;;;;;;;;;;-2.90;88.00;;;;;;4997882;28;91977;-55
2024/01/13 00:53:08;;;;;;;;;;;-2.80;88.10;;;;;;5000997;28;92858;-54
2024/01/13 00:55:34;;;;;;;;;;;-2.90;88.10;;;;;;4993017;28;92432;-55
2024/01/13 00:57:59;;;;;;;;;;;-2.90;88.00;;;;;;4999826;28;92042;-56
2024/01/13 01:00:25;;;;;;;;;;;-2.90;88.10;;;;;;4997230;28;92367;-57
2024/01/13 01:02:51;;;;;;;;;;;-2.90;88.70;;;;;;4993479;28;93240;-55
2024/01/13 01:05:16;;;;;;;;;;;-2.90;88.10;;;;;;4997751;28;91312;-54
2024/01/13 01:07:42;;;;;;;;;;;-2.90;88.00;;;;;;5000648;28;91997;-55
2024/01/13 01:10:07;;;;;;;;;;;-2.90;88.50;;;;;;4996139;28;92564;-55
2024/01/13 01:12:33;;;;;;;;;;;-2.90;88.00;;;;;;4992662;28;92846;-55
2024/01/13 01:14:59;;;;;;;;;;;-2.90;88.00;;;;;;4993397;28;94253;-56
2024/01/13 01:17:24;;;;;;;;;;;-2.90;88.10;;;;;;4997096;28;92023;-54
2024/01/13 01:19:50;;;;;;;;;;;-2.90;88.10;;;;;;4996573;28;92042;-55
2024/01/13 01:22:15;;;;;;;;;;;-2.90;88.00;;;;;;4997042;28;92525;-53
2024/01/13 01:24:41;;;;;;;;;;;-2.90;88.10;;;;;;4997300;28;92130;-57
2024/01/13 01:27:06;;;;;;;;;;;-2.90;88.10;;;;;;4995509;28;93237;-55
2024/01/13 01:29:32;;;;;;;;;;;-2.90;88.10;;;;;;4999381;28;92724;-56
2024/01/13 01:31:58;;;;;;;;;;;-3.00;88.00;;;;;;4995688;28;92016;-55
2024/01/13 01:34:23;;;;;;;;;;;-2.90;88.00;;;;;;4996561;28;93389;-57
2024/01/13 01:36:49;;;;;;;;;;;-2.90;88.10;;;;;;4995121;28;93742;-56
2024/01/13 01:39:14;;;;;;;;;;;-2.90;88.10;;;;;;4998744;28;92769;-57
2024/01/13 01:41:40;;;;;;;;;;;-3.00;88.10;;;;;;4996274;28;92644;-55
2024/01/13 01:44:05;;;;;;;;;;;-3.00;88.10;;;;;;4992957;28;91956;-56
2024/01/13 01:46:31;;;;;;;;;;;-3.00;88.20;;;;;;4996185;28;91925;-55
2024/01/13 01:48:58;;;;;;;;;;;-3.00;88.10;;;;;;4994166;28;93522;-55
2024/01/13 01:51:24;;;;;;;;;;;-3.00;88.10;;;;;;4999866;28;92064;-56
2024/01/13 01:53:50;;;;;;;;;;;-2.90;88.10;;;;;;5000099;28;92833;-56
2024/01/13 01:56:17;;;;;;;;;;;-2.90;88.00;;;;;;4992389;28;92118;-53
2024/01/13 01:58:43;;;;;;;;;;;-3.00;88.10;;;;;;4992931;28;91922;-53
2024/01/13 02:01:10;;;;;;;;;;;-3.00;88.00;;;;;;4998317;28;93450;-56
2024/01/13 02:03:36;;;;;;;;;;;-3.00;88.10;;;;;;4998057;28;92571;-54
2024/01/13 02:06:02;;;;;;;;;;;-3.00;88.10;;;;;;4993165;28;92043;-57
2024/01/13 02:08:28;;;;;;;;;;;-3.00;88.10;;;;;;4995528;28;93473;-56
2024/01/13 02:10:54;;;;;;;;;;;-3.00;88.10;;;;;;4996438;28;91946;-55
2024/01/13 02:13:19;;;;;;;;;;;-3.00;88.10;;;;;;4995623;28;91941;-57
2024/01/13 02:15:45;;;;;;;;;;;-3.00;88.20;;;;;;4996136;28;92084;-57
2024/01/13 02:18:10;;;;;;;;;;;-3.00;88.20;;;;;;4992114;28;91669;-54
2024/01/13 02:20:36;;;;;;;;;;;-3.00;88.10;;;;;;4993955;28;92760;-55
2024/01/13 02:23:02;;;;;;;;;;;-3.00;88.10;;;;;;4995856;28;92761;-53
2024/01/13 02:25:29;;;;;;;;;;;-3.00;88.20;;;;;;4991986;28;93240;-56
2024/01/13 02:27:54;;;;;;;;;;;-3.00;88.20;;;;;;4995621;28;92527;-56
2024/01/13 02:30:20;;;;;;;;;;;-3.00;88.10;;;;;;4992963;28;92122;-52
2024/01/13 02:32:45;;;;;;;;;;;-3.00;88.20;;;;;;4995279;28;92743;-56
2024/01/13 02:35:11;;;;;;;;;;;-3.00;88.20;;;;;;4998038;28;92907;-54
2024/01/13 02:37:37;;;;;;;;;;;-3.00;88.20;;;;;;4992854;28;91893;-56
2024/01/13 02:40:02;;;;;;;;;;;-3.00;88.20;;;;;;4994809;28;92562;-54
2024/01/13 02:42:28;;;;;;;;;;;-3.00;88.10;;;;;;4993221;28;91469;-56
2024/01/13 02:44:53;;;;;;;;;;;-3.00;88.20;;;;;;4995346;28;91950;-54
2024/01/13 02:47:24;;;;;;;;;;;-3.00;88.10;;;;;;4992405;28;92494;-54
2024/01/13 02:49:49;;;;;;;;;;;-3.00;88.10;;;;;;4997585;28;93369;-55
2024/01/13 02:52:15;;;;;;;;;;;-3.00;88.20;;;;;;4995778;28;92903;-55
2024/01/13 02:54:40;;;;;;;;;;;-3.00;88.10;;;;;;4990829;28;93631;-56
2024/01/13 02:57:07;;;;;;;;;;;-3.00;88.10;;;;;;4998600;28;92384;-56
2024/01/13 02:59:32;;;;;;;;;;;-3.00;88.10;;;;;;4998798;28;92459;-57
2024/01/13 03:01:58;;;;;;;;;;;-3.00;88.30;;;;;;4992047;28;91938;-56
2024/01/13 03:04:24;;;;;;;;;;;-3.00;88.30;;;;;;4998573;28;92855;-56
2024/01/13 03:06:49;;;;;;;;;;;-3.00;88.20;;;;;;4996171;28;91568;-54
2024/01/13 03:09:15;;;;;;;;;;;-3.00;88.30;;;;;;4995449;28;92068;-55
2024/01/13 03:11:40;;;;;;;;;;;-3.00;88.30;;;;;;4999062;28;92823;-53
2024/01/13 03:14:06;;;;;;;;;;;-3.00;88.30;;;;;;4994300;28;93446;-55
2024/01/13 03:16:32;;;;;;;;;;;-3.10;88.30;;;;;;4991266;28;92134;-56
2024/01/13 03:18:57;;;;;;;;;;;-3.10;88.30;;;;;;4998908;28;92070;-56
2024/01/13 03:21:24;;;;;;;;;;;-3.10;88.20;;;;;;4995304;28;92075;-55
2024/01/13 03:23:49;;;;;;;;;;;-3.10;88.30;;;;;;4991354;28;92834;-56
2024/01/13 03:26:15;;;;;;;;;;;-3.10;88.30;;;;;;4995020;28;92399;-55
2024/01/13 03:28:40;;;;;;;;;;;-3.10;88.30;;;;;;4991814;28;92587;-55
2024/01/13 03:31:06;;;;;;;;;;;-3.10;88.30;;;;;;5001387;28;91706;-55
2024/01/13 03:33:32;;;;;;;;;;;-3.10;88.90;;;;;;4999408;28;95080;-56
2024/01/13 03:35:57;;;;;;;;;;;-3.10;88.30;;;;;;5000283;28;92144;-56
2024/01/13 03:38:25;;;;;;;;;;;-3.10;88.20;;;;;;4994141;28;92920;-54
2024/01/13 03:40:50;;;;;;;;;;;-3.10;88.40;;;;;;4994563;28;92122;-57
2024/01/13 03:43:16;;;;;;;;;;;-3.10;88.30;;;;;;4994751;28;91970;-53
2024/01/13 03:45:41;;;;;;;;;;;-3.10;88.30;;;;;;4990343;28;92539;-57
2024/01/13 03:48:07;;;;;;;;;;;-3.10;88.30;;;;;;4995363;28;92043;-55
2024/01/13 03:50:32;;;;;;;;;;;-3.10;88.40;;;;;;4994990;28;91934;-55
2024/01/13 03:52:58;;;;;;;;;;;-3.10;88.40;;;;;;4991547;28;92732;-56
2024/01/13 03:55:23;;;;;;;;;;;-3.10;88.50;;;;;;4995929;28;91801;-55
2024/01/13 03:57:49;;;;;;;;;;;-3.10;88.40;;;;;;4991010;28;91993;-56
2024/01/13 04:00:14;;;;;;;;;;;-3.10;88.50;;;;;;4996782;28;93133;-55
2024/01/13 04:02:40;;;;;;;;;;;-3.10;88.40;;;;;;4990244;28;93086;-56
2024/01/13 04:05:06;;;;;;;;;;;-3.10;88.40;;;;;;4990193;28;93069;-52
2024/01/13 04:07:31;;;;;;;;;;;-3.10;88.30;;;;;;4995238;28;92653;-57
2024/01/13 04:09:57;;;;;;;;;;;-3.10;88.40;;;;;;4993521;28;92046;-56
2024/01/13 04:12:22;;;;;;;;;;;-3.10;88.30;;;;;;4995293;28;92588;-56
2024/01/13 04:14:48;;;;;;;;;;;-3.10;88.40;;;;;;4997043;28;92484;-54
2024/01/13 04:17:13;;;;;;;;;;;-3.10;88.40;;;;;;4998673;28;91951;-57
2024/01/13 04:19:39;;;;;;;;;;;-3.10;88.50;;;;;;4995358;28;91747;-55
2024/01/13 04:22:04;;;;;;;;;;;-3.20;88.40;;;;;;5000208;28;92037;-55
2024/01/13 04:24:30;;;;;;;;;;;-3.10;88.40;;;;;;4995190;28;92511;-56
2024/01/13 04:26:55;;;;;;;;;;;-3.10;88.30;;;;;;4996148;28;92983;-57
2024/01/13 04:29:21;;;;;;;;;;;-3.10;88.40;;;;;;4997917;28;92740;-56
2024/01/13 04:31:47;;;;;;;;;;;-3.10;88.40;;;;;;4997088;28;92494;-56
2024/01/13 04:34:12;;;;;;;;;;;-3.10;88.50;;;;;;4994263;28;91812;-55
2024/01/13 04:36:38;;;;;;;;;;;-3.10;88.50;;;;;;4997186;28;92015;-56
2024/01/13 04:39:03;;;;;;;;;;;-3.20;88.50;;;;;;4997544;28;92405;-55
2024/01/13 04:41:29;;;;;;;;;;;-3.10;88.50;;;;;;4998702;28;92027;-57
2024/01/13 04:43:54;;;;;;;;;;;-3.20;88.40;;;;;;4999339;28;91649;-53
2024/01/13 04:46:20;;;;;;;;;;;-3.20;88.40;;;;;;4994047;28;91958;-53
2024/01/13 04:48:45;;;;;;;;;;;-3.20;88.40;;;;;;4994442;28;92057;-56
2024/01/13 04:51:11;;;;;;;;;;;-3.20;88.40;;;;;;4992522;28;93409;-55
2024/01/13 04:53:37;;;;;;;;;;;-3.20;88.40;;;;;;4995826;28;92017;-57
2024/01/13 04:56:02;;;;;;;;;;;-3.20;88.40;;;;;;4995714;28;92867;-56
2024/01/13 04:58:28;;;;;;;;;;;-3.20;88.40;;;;;;5002154;28;94277;-56
2024/01/13 05:00:53;;;;;;;;;;;-3.20;88.30;;;;;;4996178;28;91928;-55
2024/01/13 05:03:19;;;;;;;;;;;-3.20;88.30;;;;;;4995582;28;91744;-56
2024/01/13 05:05:44;;;;;;;;;;;-3.20;88.40;;;;;;4998094;28;92494;-57
2024/01/13 05:08:10;;;;;;;;;;;-3.20;88.30;;;;;;4996361;28;91656;-51
2024/01/13 05:10:36;;;;;;;;;;;-3.20;88.30;;;;;;4987908;28;93696;-55
2024/01/13 05:13:01;;;;;;;;;;;-3.20;88.40;;;;;;4999596;28;92122;-55
2024/01/13 05:15:27;;;;;;;;;;;-3.20;88.40;;;;;;4997356;28;92977;-55
2024/01/13 05:17:52;;;;;;;;;;;-3.20;88.40;;;;;;4990308;28;92531;-54
2024/01/13 05:20:18;;;;;;;;;;;-3.20;88.40;;;;;;4996943;28;92080;-56
2024/01/13 05:22:44;;;;;;;;;;;-3.30;88.30;;;;;;4995877;28;91964;-57
2024/01/13 05:25:09;;;;;;;;;;;-3.20;88.30;;;;;;4994032;28;93415;-54
2024/01/13 05:27:35;;;;;;;;;;;-3.20;88.40;;;;;;4999334;28;91910;-57
2024/01/13 05:30:00;;;;;;;;;;;-3.20;88.30;;;;;;4992932;28;92307;-56
2024/01/13 05:32:26;;;;;;;;;;;-3.20;88.20;;;;;;4995100;28;91333;-56
2024/01/13 05:34:51;;;;;;;;;;;-3.20;88.30;;;;;;4996423;28;92038;-57
2024/01/13 05:37:17;;;;;;;;;;;-3.20;88.30;;;;;;4996101;28;93891;-57
2024/01/13 05:39:42;;;;;;;;;;;-3.20;88.30;;;;;;4996699;28;93101;-56
2024/01/13 05:42:08;;;;;;;;;;;-3.20;88.20;;;;;;4994098;28;92566;-57
2024/01/13 05:44:34;;;;;;;;;;;-3.20;88.30;;;;;;4995455;28;93362;-56
2024/01/13 05:46:59;;;;;;;;;;;-3.20;88.40;;;;;;4997154;28;92560;-54
2024/01/13 05:49:25;;;;;;;;;;;-3.20;88.40;;;;;;4995334;28;92536;-55
2024/01/13 05:51:51;;;;;;;;;;;-3.20;88.40;;;;;;4996589;28;92121;-57
2024/01/13 05:54:16;;;;;;;;;;;-3.30;88.30;;;;;;4995101;28;92126;-54
2024/01/13 05:56:42;;;;;;;;;;;-3.20;88.30;;;;;;4994357;28;91843;-56
2024/01/13 05:59:07;;;;;;;;;;;-3.30;88.40;;;;;;4996275;28;92078;-57
2024/01/13 06:01:33;;;;;;;;;;;-3.30;88.40;;;;;;4995515;28;92020;-54
2024/01/13 06:03:58;;;;;;;;;;;-3.30;88.40;;;;;;4997950;28;92872;-56
2024/01/13 06:06:24;;;;;;;;;;;-3.30;88.50;;;;;;4996493;28;92158;-56
2024/01/13 06:08:50;;;;;;;;;;;-3.30;88.50;;;;;;4998807;28;92041;-56
2024/01/13 06:11:15;;;;;;;;;;;-3.30;88.50;;;;;;4999171;28;91880;-56
2024/01/13 06:13:41;;;;;;;;;;;-3.30;88.50;;;;;;4997581;28;92072;-57
2024/01/13 06:16:07;;;;;;;;;;;-3.30;88.50;;;;;;4991449;28;93468;-56
2024/01/13 06:18:33;;;;;;;;;;;-3.30;88.50;;;;;;4992005;28;92122;-56
2024/01/13 06:21:00;;;;;;;;;;;-3.30;88.50;;;;;;4996194;28;93642;-56
2024/01/13 06:23:25;;;;;;;;;;;-3.30;88.40;;;;;;4998152;28;93545;-56
2024/01/13 06:25:51;;;;;;;;;;;-3.20;88.40;;;;;;4987992;28;92160;-56
2024/01/13 06:28:16;;;;;;;;;;;-3.30;88.40;;;;;;4998572;28;93054;-56
2024/01/13 06:30:42;;;;;;;;;;;-3.20;88.50;;;;;;4993596;28;92972;-55
2024/01/13 06:33:08;;;;;;;;;;;-3.30;88.30;;;;;;4993473;28;92868;-56
2024/01/13 06:35:33;;;;;;;;;;;-3.30;88.40;;;;;;4993648;28;93471;-56
2024/01/13 06:37:59;;;;;;;;;;;-3.30;88.50;;;;;;4999236;28;92077;-56
2024/01/13 06:40:24;;;;;;;;;;;-3.30;88.50;;;;;;4992462;28;92080;-56
2024/01/13 06:42:50;;;;;;;;;;;-3.30;88.40;;;;;;4990246;28;92568;-57
2024/01/13 06:45:15;;;;;;;;;;;-3.30;88.40;;;;;;4992389;28;91360;-56
2024/01/13 06:47:41;;;;;;;;;;;-3.30;88.40;;;;;;4995976;28;92236;-54
2024/01/13 06:50:06;;;;;;;;;;;-3.30;88.40;;;;;;4992817;28;92582;-58
2024/01/13 06:52:32;;;;;;;;;;;-3.30;88.40;;;;;;4999322;28;93094;-55
2024/01/13 06:54:58;;;;;;;;;;;-3.30;88.30;;;;;;4992082;28;93501;-57
2024/01/13 06:57:23;;;;;;;;;;;-3.30;88.50;;;;;;4991794;28;92093;-57
2024/01/13 06:59:49;;;;;;;;;;;-3.30;88.50;;;;;;4991499;28;92439;-58
2024/01/13 07:02:14;;;;;;;;;;;-3.30;88.50;;;;;;4991184;28;93530;-56
2024/01/13 07:04:40;;;;;;;;;;;-3.30;88.50;;;;;;4990658;28;92235;-56
2024/01/13 07:07:06;;;;;;;;;;;-3.30;88.50;;;;;;4991947;28;91967;-56
2024/01/13 07:09:32;;;;;;;;;;;-3.30;88.50;;;;;;5000189;28;92001;-55
2024/01/13 07:11:57;;;;;;;;;;;-3.30;88.50;;;;;;4986506;28;92711;-56
2024/01/13 07:14:23;;;;;;;;;;;-3.30;88.50;;;;;;4997516;28;92043;-56
2024/01/13 07:16:49;;;;;;;;;;;-3.30;88.50;;;;;;4992377;28;93450;-56
2024/01/13 07:19:15;;;;;;;;;;;-3.30;88.40;;;;;;4993495;28;93497;-57
2024/01/13 07:21:41;;;;;;;;;;;-3.30;88.20;;;;;;4987779;28;92457;-54
2024/01/13 07:24:08;;;;;;;;;;;-3.30;88.30;;;;;;4994833;28;92408;-55
2024/01/13 07:26:38;;;;;;;;;;;-3.30;88.40;;;;;;4995560;28;91913;-57
2024/01/13 07:29:03;;;;;;;;;;;-3.30;88.30;;;;;;4991652;28;93028;-56
2024/01/13 07:31:29;;;;;;;;;;;-3.30;88.20;;;;;;4990732;28;92054;-55
2024/01/13 07:33:55;;;;;;;;;;;-3.30;88.20;;;;;;4998409;28;91951;-56
2024/01/13 07:36:21;;;;;;;;;;;-3.30;88.30;;;;;;4997805;28;92039;-55
2024/01/13 07:38:46;;;;;;;;;;;-3.30;88.20;;;;;;4992540;28;92476;-56
2024/01/13 07:41:12;;;;;;;;;;;-3.30;88.20;;;;;;4993698;28;93713;-57
2024/01/13 07:43:37;;;;;;;;;;;-3.30;88.10;;;;;;4995033;28;92014;-56
2024/01/13 07:46:03;;;;;;;;;;;-3.30;88.20;;;;;;4993581;28;92799;-55
2024/01/13 07:48:29;;;;;;;;;;;-3.30;88.20;;;;;;4992299;28;92387;-57
2024/01/13 07:50:54;;;;;;;;;;;-3.40;88.30;;;;;;4998460;28;92077;-57
2024/01/13 07:53:20;;;;;;;;;;;-3.30;88.30;;;;;;4991119;28;92526;-57
2024/01/13 07:55:45;;;;;;;;;;;-3.40;88.30;;;;;;4992623;28;93827;-57
2024/01/13 07:58:11;;;;;;;;;;;-3.30;88.40;;;;;;4993506;28;92439;-55
2024/01/13 08:00:37;;;;;;;;;;;-3.30;88.40;;;;;;4994663;28;92405;-54
2024/01/13 08:03:04;;;;;;;;;;;-3.30;88.40;;;;;;4992257;28;91892;-53
2024/01/13 08:05:31;;;;;;;;;;;-3.30;88.40;;;;;;4996709;28;93055;-54
2024/01/13 08:07:57;;;;;;;;;;;-3.30;88.40;;;;;;4987094;28;93754;-55
2024/01/13 08:10:23;;;;;;;;;;;-3.30;88.30;;;;;;4996393;28;92081;-54
2024/01/13 08:12:48;;;;;;;;;;;-3.30;88.20;;;;;;4990414;28;93015;-54
2024/01/13 08:15:14;;;;;;;;;;;-3.30;88.30;;;;;;4996494;28;93789;-56
2024/01/13 08:17:40;;;;;;;;;;;-3.30;88.30;;;;;;4991399;28;92230;-55
2024/01/13 08:20:06;;;;;;;;;;;-3.30;88.20;;;;;;4997704;28;91990;-56
2024/01/13 08:22:32;;;;;;;;;;;-3.30;88.30;;;;;;4994447;28;91276;-56
2024/01/13 08:24:57;;;;;;;;;;;-3.30;88.30;;;;;;4991447;28;92819;-55
2024/01/13 08:27:24;;;;;;;;;;;-3.30;88.20;;;;;;4990299;28;93493;-53
2024/01/13 08:29:49;;;;;;;;;;;-3.30;88.30;;;;;;4990153;28;92990;-54
2024/01/13 08:32:15;;;;;;;;;;;-3.30;88.30;;;;;;4995815;28;92688;-53
2024/01/13 08:34:40;;;;;;;;;;;-3.30;88.30;;;;;;4989250;28;92998;-54
2024/01/13 08:37:06;;;;;;;;;;;-3.30;88.40;;;;;;4994334;28;92129;-57
2024/01/13 08:39:32;;;;;;;;;;;-3.30;88.30;;;;;;4996486;28;92786;-56
2024/01/13 08:41:57;;;;;;;;;;;-3.30;88.40;;;;;;4994171;28;92473;-56
2024/01/13 08:44:23;;;;;;;;;;;-3.30;88.40;;;;;;4994665;28;92057;-53
2024/01/13 08:46:48;;;;;;;;;;;-3.30;88.30;;;;;;4985009;28;92804;-57
2024/01/13 08:49:14;;;;;;;;;;;-3.30;88.40;;;;;;4990482;28;92108;-56
2024/01/13 08:51:39;;;;;;;;;;;-3.30;88.20;;;;;;4993586;28;91954;-56
2024/01/13 08:54:07;;;;;;;;;;;-3.30;88.20;;;;;;4996078;28;93607;-55
2024/01/13 08:56:34;;;;;;;;;;;-3.30;88.30;;;;;;5000873;28;92224;-56
2024/01/13 08:59:01;;;;;;;;;;;-3.30;88.20;;;;;;4993822;28;92254;-54
2024/01/13 09:01:26;;;;;;;;;;;-3.30;88.20;;;;;;4994615;28;92431;-57
2024/01/13 09:03:52;;;;;;;;;;;-3.20;88.00;;;;;;4997976;28;93091;-56
2024/01/13 09:06:17;;;;;;;;;;;-3.20;87.80;;;;;;4998977;28;92458;-55
2024/01/13 09:08:43;;;;;;;;;;;-3.10;87.70;;;;;;4991792;28;92102;-57
2024/01/13 09:11:09;;;;;;;;;;;-3.10;87.50;;;;;;4994893;28;91711;-55
2024/01/13 09:13:34;;;;;;;;;;;-3.10;87.50;;;;;;4996671;28;93668;-56
2024/01/13 09:16:00;;;;;;;;;;;-3.20;87.50;;;;;;4997645;28;92107;-56
2024/01/13 09:18:25;;;;;;;;;;;-3.10;87.60;;;;;;4997240;28;93432;-57
2024/01/13 09:20:51;;;;;;;;;;;-3.10;87.30;;;;;;4996244;28;92938;-56
2024/01/13 09:23:16;;;;;;;;;;;-3.10;87.30;;;;;;4993634;28;92214;-55
2024/01/13 09:25:42;;;;;;;;;;;-3.10;87.20;;;;;;4996332;28;92578;-55
2024/01/13 09:28:09;;;;;;;;;;;-3.10;87.00;;;;;;4995811;28;92122;-57
2024/01/13 09:30:35;;;;;;;;;;;-3.10;87.10;;;;;;4993389;28;93878;-55
2024/01/13 09:33:01;;;;;;;;;;;-3.00;87.30;;;;;;4993122;28;93055;-54
2024/01/13 09:35:30;;;;;;;;;;;-3.00;87.10;;;;;;4993965;28;91376;-55
2024/01/13 09:37:59;;;;;;;;;;;-3.10;87.10;;;;;;5002968;28;92192;-57
2024/01/13 09:40:25;;;;;;;;;;;-3.00;87.00;;;;;;4997376;28;92443;-52
2024/01/13 09:43:03;;;;;;;;;;;-3.00;87.10;;;;;;5006325;28;93054;-54
2024/01/13 09:45:29;;;;;;;;;;;-3.00;87.00;;;;;;5004902;28;92426;-55
2024/01/13 09:47:56;;;;;;;;;;;-3.00;87.00;;;;;;5005388;28;92046;-55
2024/01/13 09:50:22;;;;;;;;;;;-3.00;87.10;;;;;;5005024;28;93058;-53
2024/01/13 09:52:48;;;;;;;;;;;-3.10;87.00;;;;;;5004130;28;92653;-57
2024/01/13 13:49:58;;;;;;;;;;;-3.40;90.90;;;;;;5036773;28;82162;-52
2024/01/13 13:52:24;;;;;;;;;;;-3.40;91.00;;;;;;5035425;28;81997;-55
2024/01/13 13:54:49;;;;;;;;;;;-3.30;90.90;;;;;;5035313;27;80428;-52
2024/01/13 13:57:15;;;;;;;;;;;-3.20;90.40;;;;;;5035623;28;80645;-51
2024/01/13 13:59:41;;;;;;;;;;;-1.80;91.70;;;;;;5039317;27;80353;-47
2024/01/13 14:02:06;;;;;;;;;;;0.00;90.70;;;;;;5037185;28;80420;-52
2024/01/13 14:04:32;;;;;;;;;;;0.70;88.90;;;;;;5037255;27;80572;-57
2024/01/13 14:10:24;;;;;;;;;;;0.70;85.80;;;;;;5027096;28;80201;-51
2024/01/13 14:12:50;;;;;;;;;;;0.50;85.90;;;;;;5027042;28;80525;-57
2024/01/13 14:15:15;;;;;;;;;;;0.10;86.10;;;;;;5024901;28;81201;-60
2024/01/13 14:17:41;;;;;;;;;;;-0.20;87.40;;;;;;5023563;28;80571;-59
2024/01/13 14:20:07;;;;;;;;;;;-0.30;88.20;;;;;;5025535;28;80233;-54
2024/01/13 14:22:34;;;;;;;;;;;-0.50;87.90;;;;;;5027711;28;80086;-51
2024/01/13 14:24:59;;;;;;;;;;;-0.70;88.60;;;;;;5023470;28;80587;-53
2024/01/13 14:27:25;;;;;;;;;;;-0.80;88.90;;;;;;5022313;28;80415;-47
2024/01/13 14:29:50;;;;;;;;;;;-0.90;89.40;;;;;;5029104;28;80077;-50
2024/01/13 14:32:16;;;;;;;;;;;-1.00;89.20;;;;;;5026263;28;80181;-49
2024/01/13 14:34:42;;;;;;;;;;;-1.10;89.70;;;;;;5025595;28;80232;-51
2024/01/13 14:37:08;;;;;;;;;;;-1.10;89.70;;;;;;5027294;28;80232;-54
2024/01/13 14:39:33;;;;;;;;;;;-1.20;89.60;;;;;;5026534;28;80411;-47
2024/01/13 14:41:59;;;;;;;;;;;-1.20;90.00;;;;;;5021000;28;80276;-47
2024/01/13 14:44:24;;;;;;;;;;;-0.80;89.50;;;;;;5026093;28;80543;-43
2024/01/13 14:46:51;;;;;;;;;;;-0.30;88.30;;;;;;5024257;28;80789;-46
2024/01/13 14:49:17;;;;;;;;;;;0.10;87.50;;;;;;5027017;28;80686;-47
2024/01/13 14:51:43;;;;;;;;;;;0.50;86.20;;;;;;5029372;28;80637;-53
2024/01/13 14:54:09;;;;;;;;;;;0.90;85.20;;;;;;5027201;28;80173;-46
2024/01/13 14:56:34;;;;;;;;;;;1.10;84.60;;;;;;5023181;28;80453;-47
2024/01/13 14:59:00;;;;;;;;;;;1.40;84.20;;;;;;5019639;28;80236;-46
2024/01/13 15:01:25;;;;;;;;;;;1.70;83.80;;;;;;5025933;28;80240;-56
2024/01/13 15:03:51;;;;;;;;;;;1.80;83.30;;;;;;5023356;28;80225;-50
2024/01/13 15:06:16;;;;;;;;;;;1.70;82.70;;;;;;5024170;28;80346;-57
2024/01/13 15:08:42;;;;;;;;;;;1.20;83.40;;;;;;5020192;28;80437;-50
2024/01/13 15:11:08;;;;;;;;;;;0.90;84.60;;;;;;5023131;28;80775;-61
2024/01/13 15:13:33;;;;;;;;;;;0.60;85.60;;;;;;5028183;28;80399;-44
2024/01/13 15:16:00;;;;;;;;;;;0.50;85.80;;;;;;5027575;28;81773;-45
2024/01/13 15:18:25;;;;;;;;;;;0.20;84.60;;;;;;5026748;28;80269;-45
2024/01/13 15:20:51;;;;;;;;;;;0.00;85.30;;;;;;5018816;28;80269;-47
2024/01/13 15:23:16;;;;;;;;;;;-0.10;85.80;;;;;;5012286;28;80724;-45
2024/01/13 15:25:42;;;;;;;;;;;-0.20;86.30;;;;;;5011821;28;80267;-45
2024/01/13 15:28:08;;;;;;;;;;;-0.20;86.60;;;;;;5008742;28;81087;-45
2024/01/13 15:30:33;;;;;;;;;;;-0.30;86.60;;;;;;5008860;28;80925;-46
2024/01/13 15:33:00;;;;;;;;;;;-0.40;86.90;;;;;;5012830;28;80281;-46
2024/01/13 15:35:26;;;;;;;;;;;-0.50;87.10;;;;;;5014412;28;81795;-45
2024/01/13 15:37:52;;;;;;;;;;;-0.50;87.00;;;;;;5011403;28;80127;-46
2024/01/13 15:40:17;;;;;;;;;;;-0.50;87.00;;;;;;5011699;28;80381;-44
2024/01/13 15:42:43;;;;;;;;;;;-0.60;87.20;;;;;;5011112;28;81805;-45
2024/01/13 15:45:09;;;;;;;;;;;-0.60;87.20;;;;;;5009857;28;80184;-46
2024/01/13 15:47:35;;;;;;;;;;;-0.60;87.20;;;;;;5008283;28;80315;-44
2024/01/13 15:50:01;;;;;;;;;;;-0.70;87.20;;;;;;5008654;28;81923;-46
2024/01/13 15:52:26;;;;;;;;;;;-0.90;87.60;;;;;;5012211;28;80240;-46
2024/01/13 15:54:52;;;;;;;;;;;-0.90;88.00;;;;;;5013065;28;80195;-44
2024/01/13 15:57:17;;;;;;;;;;;-1.00;88.10;;;;;;5015341;28;80694;-45
2024/01/13 15:59:43;;;;;;;;;;;-1.00;88.10;;;;;;5012703;28;80249;-45
2024/01/13 16:02:10;;;;;;;;;;;-1.10;88.10;;;;;;5011922;28;81250;-47
2024/01/13 16:04:36;;;;;;;;;;;-1.20;88.30;;;;;;5011839;28;80347;-45
2024/01/13 16:07:02;;;;;;;;;;;-1.20;88.50;;;;;;5012582;28;80275;-45
2024/01/13 16:09:28;;;;;;;;;;;-1.20;88.60;;;;;;5011206;28;80935;-46
2024/01/13 16:11:54;;;;;;;;;;;-1.20;88.40;;;;;;5012031;28;81622;-44
2024/01/13 16:14:20;;;;;;;;;;;-1.30;88.50;;;;;;5011847;28;81694;-44
2024/01/13 16:16:46;;;;;;;;;;;-1.30;88.50;;;;;;5011838;28;80884;-46
2024/01/13 16:19:12;;;;;;;;;;;-1.30;88.70;;;;;;5014647;28;80066;-46
2024/01/13 16:21:40;;;;;;;;;;;-1.40;88.80;;;;;;5011198;28;82035;-45
2024/01/13 16:24:09;;;;;;;;;;;-1.40;88.90;;;;;;5012444;28;80142;-46
2024/01/13 16:26:35;;;;;;;;;;;-1.40;89.00;;;;;;5012390;28;81396;-47
2024/01/13 16:29:02;;;;;;;;;;;-1.40;88.80;;;;;;5012402;28;80675;-46
2024/01/13 16:31:28;;;;;;;;;;;-1.40;89.00;;;;;;5008306;28;80258;-45
2024/01/13 16:33:54;;;;;;;;;;;-1.50;88.80;;;;;;5011236;28;80320;-46
2024/01/13 16:36:21;;;;;;;;;;;-1.50;88.80;;;;;;5011145;28;81049;-45
2024/01/13 16:38:46;;;;;;;;;;;-1.40;88.70;;;;;;5014982;28;80254;-45
2024/01/13 16:41:12;;;;;;;;;;;-1.40;88.50;;;;;;5012160;28;80683;-45
2024/01/13 16:43:38;;;;;;;;;;;-1.40;88.70;;;;;;5011400;28;80234;-45
2024/01/13 16:46:03;;;;;;;;;;;-1.40;88.70;;;;;;5010933;28;80471;-45
2024/01/13 16:48:29;;;;;;;;;;;-1.40;88.50;;;;;;5011431;28;80776;-46
2024/01/13 16:50:54;;;;;;;;;;;-1.50;88.70;;;;;;5008843;28;80298;-45
2024/01/13 16:53:20;;;;;;;;;;;-1.50;88.60;;;;;;5011166;28;81230;-45
2024/01/13 16:55:47;;;;;;;;;;;-1.60;88.90;;;;;;5011227;28;80648;-45
2024/01/13 16:58:13;;;;;;;;;;;-1.60;89.00;;;;;;5011474;28;80938;-44
2024/01/13 17:00:38;;;;;;;;;;;-1.60;89.00;;;;;;5014559;28;80143;-47
2024/01/13 17:03:04;;;;;;;;;;;-1.60;89.00;;;;;;5011049;28;80185;-44
2024/01/13 17:05:30;;;;;;;;;;;-1.60;89.00;;;;;;5011916;28;81285;-45
2024/01/13 17:07:56;;;;;;;;;;;-1.60;88.90;;;;;;5011569;28;81661;-45
2024/01/13 17:10:21;;;;;;;;;;;-1.60;89.10;;;;;;5011313;28;80221;-45
2024/01/13 17:12:47;;;;;;;;;;;-1.60;88.90;;;;;;5011397;28;80136;-45
2024/01/13 17:15:13;;;;;;;;;;;-1.60;89.00;;;;;;5010394;28;81740;-44
2024/01/13 17:17:38;;;;;;;;;;;-1.60;89.00;;;;;;5008981;28;80212;-45
2024/01/13 17:20:09;;;;;;;;;;;-1.70;88.80;;;;;;5008695;28;80437;-44
2024/01/13 17:22:35;;;;;;;;;;;-1.70;88.90;;;;;;5014073;28;81702;-44
2024/01/13 17:25:00;;;;;;;;;;;-1.70;89.00;;;;;;5011172;28;81283;-45
2024/01/13 17:27:26;;;;;;;;;;;-1.70;89.10;;;;;;5011418;28;80662;-45
2024/01/13 17:29:51;;;;;;;;;;;-1.70;89.10;;;;;;5010256;28;80913;-44
2024/01/13 17:32:17;;;;;;;;;;;-1.70;89.20;;;;;;5004740;28;83057;-45
2024/01/13 17:34:43;;;;;;;;;;;-1.70;89.10;;;;;;5010698;28;81765;-45
2024/01/13 17:37:08;;;;;;;;;;;-1.70;89.10;;;;;;5011376;28;80231;-45
2024/01/13 17:39:34;;;;;;;;;;;-1.80;89.00;;;;;;5010456;28;81446;-46
2024/01/13 17:42:00;;;;;;;;;;;-1.80;89.10;;;;;;5008650;28;80248;-46
2024/01/13 17:44:25;;;;;;;;;;;-1.80;89.10;;;;;;5009558;28;80336;-45
2024/01/13 17:46:51;;;;;;;;;;;-1.80;89.20;;;;;;5010146;28;80211;-45
2024/01/13 17:49:16;;;;;;;;;;;-1.80;89.20;;;;;;5010931;28;80332;-45
2024/01/13 17:51:42;;;;;;;;;;;-1.80;89.20;;;;;;5011461;28;80234;-46
2024/01/13 17:54:08;;;;;;;;;;;-1.80;89.20;;;;;;5010777;28;80720;-45
2024/01/13 17:56:35;;;;;;;;;;;-1.90;89.20;;;;;;5011170;28;80357;-45
2024/01/13 17:59:01;;;;;;;;;;;-1.90;89.10;;;;;;5010130;28;81783;-46
2024/01/13 18:01:26;;;;;;;;;;;-1.90;89.10;;;;;;5011066;28;80819;-45
2024/01/13 18:03:52;;;;;;;;;;;-1.90;89.10;;;;;;5010308;28;80214;-45
2024/01/13 18:06:18;;;;;;;;;;;-1.80;89.20;;;;;;5009419;28;80323;-45
2024/01/13 18:08:43;;;;;;;;;;;-1.80;89.20;;;;;;5010306;28;80353;-45